Time;durP1;ratioP1;P1;durP2;ratioP2;P2;SDS_P1;SDS_P2;PMS_P1;PMS_P2;Temp;Humidity;BMP_temperature;BMP_pressure;BME280_temperature;BME280_humidity;BME280_pressure;Samples;Min_cycle;Max_cycle;Signal;HPM_P1;HPM_P2
2023/04/20 00:00:14;;;;;;;7.73;4.93;;;5.80;82.10;;;;;;5089081;28;20444;-71
2023/04/20 00:03:00;;;;;;;11.53;6.00;;;5.80;82.30;;;;;;5085851;28;20427;-71
2023/04/20 00:05:48;;;;;;;6.70;5.43;;;5.80;81.20;;;;;;5082727;28;20475;-71
2023/04/20 00:08:35;;;;;;;6.50;4.40;;;5.80;80.60;;;;;;5078510;28;20469;-71
2023/04/20 00:11:20;;;;;;;6.20;4.97;;;5.90;80.80;;;;;;5086536;28;20460;-71
2023/04/20 00:14:06;;;;;;;6.17;4.30;;;5.90;80.40;;;;;;5084039;28;20445;-71
2023/04/20 00:16:52;;;;;;;8.40;4.93;;;5.90;80.40;;;;;;5080956;28;21082;-71
2023/04/20 00:19:38;;;;;;;5.53;4.43;;;6.00;80.30;;;;;;5082371;28;20435;-71
2023/04/20 00:22:24;;;;;;;14.67;5.70;;;5.90;79.60;;;;;;5083461;28;20614;-71
2023/04/20 00:25:11;;;;;;;8.38;5.07;;;5.80;80.20;;;;;;5080719;28;20478;-71
2023/04/20 00:27:57;;;;;;;7.07;4.90;;;5.70;79.70;;;;;;5088053;28;20566;-71
2023/04/20 00:30:42;;;;;;;7.10;4.67;;;5.70;81.20;;;;;;5090087;28;20419;-71
2023/04/20 00:33:28;;;;;;;6.50;5.10;;;5.70;81.30;;;;;;5081968;28;20459;-71
2023/04/20 00:36:13;;;;;;;6.03;4.73;;;5.60;81.30;;;;;;5086804;28;20433;-71
2023/04/20 00:39:00;;;;;;;5.40;4.43;;;5.60;82.00;;;;;;5086151;28;20579;-71
2023/04/20 00:41:46;;;;;;;7.90;5.33;;;5.60;81.80;;;;;;5082677;28;20447;-71
2023/04/20 00:44:32;;;;;;;10.27;4.40;;;5.50;82.20;;;;;;5079006;28;20449;-71
2023/04/20 00:47:17;;;;;;;8.67;4.97;;;5.40;82.50;;;;;;5086897;28;21339;-71
2023/04/20 00:50:03;;;;;;;6.70;4.63;;;5.40;82.20;;;;;;5083773;28;20447;-71
2023/04/20 00:52:49;;;;;;;8.83;4.80;;;5.40;82.60;;;;;;5082501;28;20460;-71
2023/04/20 00:55:37;;;;;;;7.68;4.95;;;5.30;82.10;;;;;;5085127;28;20440;-71
2023/04/20 00:58:24;;;;;;;8.60;5.90;;;5.20;83.90;;;;;;5085413;28;20673;-71
2023/04/20 01:01:10;;;;;;;6.23;4.90;;;5.20;83.90;;;;;;5086737;28;20285;-71
2023/04/20 01:03:56;;;;;;;9.95;4.93;;;5.30;84.10;;;;;;5080808;28;20445;-71
2023/04/20 01:06:42;;;;;;;5.20;4.03;;;5.30;84.10;;;;;;5081952;28;20246;-71
2023/04/20 01:09:28;;;;;;;7.33;4.43;;;5.30;83.70;;;;;;5078822;28;20471;-71
2023/04/20 01:12:14;;;;;;;7.53;5.30;;;5.30;84.00;;;;;;5084006;28;20597;-71
2023/04/20 01:15:01;;;;;;;5.60;4.97;;;5.40;84.00;;;;;;5080365;28;20445;-71
2023/04/20 01:17:48;;;;;;;6.20;4.50;;;5.40;83.80;;;;;;5087148;28;20283;-71
2023/04/20 01:20:34;;;;;;;6.00;4.23;;;5.20;83.90;;;;;;5084543;28;20592;-71
2023/04/20 01:23:21;;;;;;;6.55;4.22;;;5.20;84.40;;;;;;5080665;28;21027;-71
2023/04/20 01:26:07;;;;;;;7.93;5.15;;;4.90;85.10;;;;;;5085056;28;20228;-70
2023/04/20 01:28:53;;;;;;;8.73;5.00;;;4.70;86.80;;;;;;5085570;28;20235;-71
2023/04/20 01:31:39;;;;;;;6.80;4.60;;;4.80;88.00;;;;;;5084454;28;20591;-71
2023/04/20 01:34:25;;;;;;;5.88;4.50;;;4.80;88.60;;;;;;5078853;28;20202;-71
2023/04/20 01:37:10;;;;;;;8.17;4.93;;;4.80;88.50;;;;;;5087816;28;20202;-71
2023/04/20 01:39:57;;;;;;;6.83;4.93;;;4.90;87.80;;;;;;5090738;28;20871;-71
2023/04/20 01:42:43;;;;;;;7.10;5.05;;;5.00;86.80;;;;;;5083160;28;20455;-71
2023/04/20 01:45:28;;;;;;;8.07;4.77;;;5.00;86.90;;;;;;5089144;28;20229;-71
2023/04/20 01:48:14;;;;;;;8.07;4.47;;;4.90;86.50;;;;;;5089927;28;20509;-71
2023/04/20 01:51:00;;;;;;;8.05;5.30;;;4.80;87.50;;;;;;5084971;28;20964;-71
2023/04/20 01:53:45;;;;;;;7.82;4.50;;;4.70;87.40;;;;;;5088231;28;20213;-71
2023/04/20 01:56:33;;;;;;;5.35;4.63;;;4.50;88.20;;;;;;5091256;28;20200;-72
2023/04/20 01:59:18;;;;;;;7.70;4.83;;;4.30;89.60;;;;;;5087684;28;20227;-71
2023/04/20 02:02:04;;;;;;;7.80;5.10;;;4.40;90.50;;;;;;5088860;28;20441;-71
2023/04/20 02:04:49;;;;;;;5.05;4.30;;;4.50;91.00;;;;;;5089793;28;20854;-71
2023/04/20 02:07:35;;;;;;;5.60;4.63;;;4.70;90.60;;;;;;5091048;28;20212;-71
2023/04/20 02:10:21;;;;;;;6.22;5.00;;;4.60;90.30;;;;;;5089642;28;20862;-71
2023/04/20 02:13:08;;;;;;;10.20;4.80;;;4.40;90.60;;;;;;5085988;28;20251;-71
2023/04/20 02:15:54;;;;;;;14.57;4.95;;;4.30;90.90;;;;;;5093610;28;20452;-71
2023/04/20 02:18:40;;;;;;;7.75;4.90;;;4.30;91.70;;;;;;5087695;28;20234;-72
2023/04/20 02:21:26;;;;;;;5.35;3.97;;;4.40;91.60;;;;;;5086781;28;20218;-71
2023/04/20 02:24:12;;;;;;;6.83;5.17;;;4.50;91.50;;;;;;5087420;28;20682;-71
2023/04/20 02:26:58;;;;;;;10.93;5.00;;;4.60;91.00;;;;;;5089767;28;20431;-71
2023/04/20 02:29:45;;;;;;;7.33;4.00;;;4.70;90.90;;;;;;5090171;28;20569;-71
2023/04/20 02:32:31;;;;;;;7.07;4.83;;;4.70;90.30;;;;;;5088385;28;20446;-71
2023/04/20 02:35:17;;;;;;;5.00;4.47;;;4.60;90.40;;;;;;5087676;28;20498;-71
2023/04/20 02:38:03;;;;;;;8.65;4.47;;;4.60;90.40;;;;;;5089094;28;20206;-71
2023/04/20 02:40:48;;;;;;;6.82;5.15;;;4.40;91.40;;;;;;5090115;28;20267;-71
2023/04/20 02:43:35;;;;;;;8.25;5.30;;;4.30;91.80;;;;;;5091678;28;20256;-71
2023/04/20 02:46:22;;;;;;;7.18;5.20;;;4.20;92.70;;;;;;5094130;28;20307;-71
2023/04/20 02:49:08;;;;;;;8.88;6.10;;;4.30;92.70;;;;;;5084781;28;20712;-71
2023/04/20 02:51:53;;;;;;;12.68;5.38;;;4.30;93.70;;;;;;5079313;28;20906;-71
2023/04/20 02:54:39;;;;;;;5.95;4.50;;;4.40;93.70;;;;;;5087786;28;20203;-71
2023/04/20 02:57:25;;;;;;;5.00;4.22;;;4.40;93.30;;;;;;5087622;28;20378;-71
2023/04/20 03:00:12;;;;;;;6.18;4.78;;;4.30;94.30;;;;;;5079431;28;20361;-71
2023/04/20 03:02:59;;;;;;;6.07;5.28;;;4.30;95.00;;;;;;5083743;28;20261;-71
2023/04/20 03:05:44;;;;;;;7.70;4.72;;;4.30;95.40;;;;;;5089963;28;20231;-71
2023/04/20 03:08:30;;;;;;;7.30;4.22;;;4.20;96.20;;;;;;5085401;28;20222;-71
2023/04/20 03:11:16;;;;;;;9.23;5.05;;;4.30;97.00;;;;;;5080856;28;20246;-71
2023/04/20 03:14:01;;;;;;;7.63;5.43;;;4.30;98.10;;;;;;5087386;28;20205;-71
2023/04/20 03:16:47;;;;;;;8.00;4.47;;;4.40;98.50;;;;;;5084554;28;20263;-71
2023/04/20 03:19:35;;;;;;;5.85;4.07;;;4.40;99.10;;;;;;5089904;28;20471;-71
2023/04/20 03:22:21;;;;;;;9.02;4.85;;;4.60;99.40;;;;;;5088173;28;20208;-71
2023/04/20 03:25:07;;;;;;;12.65;5.22;;;4.60;98.70;;;;;;5089928;28;20345;-71
2023/04/20 03:27:53;;;;;;;8.87;4.00;;;4.80;98.80;;;;;;5084206;28;20729;-71
2023/04/20 03:30:38;;;;;;;8.57;4.30;;;4.80;98.70;;;;;;5086807;28;20447;-71
2023/04/20 03:33:24;;;;;;;8.32;4.78;;;4.80;98.70;;;;;;5088016;28;20445;-71
2023/04/20 03:36:12;;;;;;;7.45;5.32;;;4.80;98.60;;;;;;5087331;28;20204;-71
2023/04/20 03:38:58;;;;;;;5.93;4.32;;;4.80;98.50;;;;;;5087858;28;20714;-71
2023/04/20 03:41:44;;;;;;;7.85;4.93;;;4.80;98.30;;;;;;5088000;28;20203;-71
2023/04/20 03:44:29;;;;;;;6.22;4.90;;;4.80;98.20;;;;;;5085652;28;20572;-71
2023/04/20 03:47:15;;;;;;;6.82;4.55;;;4.90;97.80;;;;;;5087435;28;20201;-71
2023/04/20 03:50:01;;;;;;;7.40;4.55;;;5.00;97.70;;;;;;5084913;28;20214;-71
2023/04/20 03:52:47;;;;;;;6.82;4.18;;;4.90;97.60;;;;;;5091185;28;20252;-71
2023/04/20 03:55:33;;;;;;;8.40;4.50;;;4.80;97.70;;;;;;5083731;28;21747;-71
2023/04/20 03:58:19;;;;;;;8.77;5.40;;;4.70;98.50;;;;;;5083308;28;20444;-71
2023/04/20 04:01:07;;;;;;;9.40;5.63;;;4.60;98.80;;;;;;5079881;28;20878;-71
2023/04/20 04:03:53;;;;;;;8.10;5.20;;;4.60;98.80;;;;;;5085557;28;20938;-71
2023/04/20 04:06:38;;;;;;;7.07;5.00;;;4.60;98.70;;;;;;5087060;28;20554;-71
2023/04/20 04:09:25;;;;;;;9.93;5.00;;;4.70;98.50;;;;;;5083292;28;20496;-71
2023/04/20 04:12:11;;;;;;;6.07;5.47;;;4.50;98.80;;;;;;5084140;28;20444;-71
2023/04/20 04:14:57;;;;;;;4.70;4.20;;;4.50;99.10;;;;;;5083600;28;20526;-71
2023/04/20 04:17:42;;;;;;;7.80;4.73;;;4.40;99.20;;;;;;5080356;28;20532;-71
2023/04/20 04:20:28;;;;;;;10.10;4.50;;;4.40;99.10;;;;;;5082863;28;21137;-71
2023/04/20 04:23:14;;;;;;;8.88;5.20;;;4.50;99.20;;;;;;5085363;28;20459;-71
2023/04/20 04:26:01;;;;;;;8.03;6.07;;;4.50;99.20;;;;;;5085408;28;21008;-71
2023/04/20 04:28:48;;;;;;;10.23;5.43;;;4.30;99.70;;;;;;5087060;28;20491;-71
2023/04/20 04:31:33;;;;;;;12.93;6.13;;;4.30;99.90;;;;;;5084829;28;20427;-71
2023/04/20 04:34:19;;;;;;;6.10;4.80;;;4.40;99.90;;;;;;5081480;28;20464;-71
2023/04/20 04:37:05;;;;;;;10.10;5.60;;;4.40;99.90;;;;;;5082899;28;20521;-71
2023/04/20 04:39:51;;;;;;;9.13;5.40;;;4.30;99.90;;;;;;5080849;28;20302;-71
2023/04/20 04:42:38;;;;;;;7.87;4.67;;;4.50;99.90;;;;;;5083858;28;20449;-71
2023/04/20 04:45:24;;;;;;;10.33;6.17;;;4.70;99.90;;;;;;5084282;28;20526;-71
2023/04/20 04:48:10;;;;;;;6.85;5.22;;;4.70;99.90;;;;;;5092342;28;20461;-71
2023/04/20 04:50:56;;;;;;;13.02;5.60;;;4.80;99.90;;;;;;5079511;28;20207;-71
2023/04/20 04:53:43;;;;;;;13.18;5.55;;;4.90;99.90;;;;;;5085732;28;20206;-71
2023/04/20 04:56:29;;;;;;;10.20;6.00;;;5.00;99.90;;;;;;5080114;28;20732;-71
2023/04/20 04:59:16;;;;;;;10.73;6.77;;;5.20;99.90;;;;;;5086942;28;20230;-71
2023/04/20 05:02:02;;;;;;;8.73;5.93;;;5.30;99.40;;;;;;5081949;28;20527;-71
2023/04/20 05:04:48;;;;;;;11.02;5.38;;;5.50;98.80;;;;;;5080540;28;20444;-71
2023/04/20 05:07:33;;;;;;;6.77;5.60;;;5.70;98.80;;;;;;5084718;28;20821;-71
2023/04/20 05:10:19;;;;;;;12.07;6.87;;;5.80;97.80;;;;;;5078804;28;20548;-71
2023/04/20 05:13:05;;;;;;;9.80;6.10;;;5.90;97.10;;;;;;5079823;28;20446;-71
2023/04/20 05:15:51;;;;;;;13.97;6.70;;;6.00;95.40;;;;;;5078046;28;20497;-71
2023/04/20 05:18:37;;;;;;;6.93;5.50;;;6.20;95.30;;;;;;5081424;28;20521;-71
2023/04/20 05:21:23;;;;;;;9.00;6.10;;;6.30;94.90;;;;;;5083973;28;20781;-71
2023/04/20 05:24:09;;;;;;;12.70;6.83;;;6.40;94.40;;;;;;5085868;28;20446;-71
2023/04/20 05:26:54;;;;;;;9.50;5.70;;;6.50;94.40;;;;;;5090135;28;20509;-71
2023/04/20 05:29:40;;;;;;;8.10;5.47;;;6.50;94.30;;;;;;5080031;28;20492;-71
2023/04/20 05:32:27;;;;;;;12.47;6.70;;;6.70;93.70;;;;;;5079315;28;20435;-71
2023/04/20 05:35:13;;;;;;;9.97;6.33;;;6.70;93.40;;;;;;5086954;28;20535;-71
2023/04/20 05:38:01;;;;;;;13.37;6.60;;;6.80;93.10;;;;;;5084446;28;20433;-71
2023/04/20 05:40:46;;;;;;;11.73;5.43;;;6.90;93.00;;;;;;5083164;28;20447;-71
2023/04/20 05:43:32;;;;;;;8.30;6.60;;;6.90;92.70;;;;;;5086948;28;20478;-71
2023/04/20 05:46:18;;;;;;;11.83;5.97;;;6.90;92.50;;;;;;5082993;28;20440;-71
2023/04/20 05:49:05;;;;;;;9.30;5.80;;;7.00;91.60;;;;;;5078215;28;20542;-71
2023/04/20 05:51:51;;;;;;;7.70;5.43;;;7.10;91.30;;;;;;5086007;28;20480;-71
2023/04/20 05:54:36;;;;;;;9.53;5.40;;;7.20;90.90;;;;;;5077289;28;20580;-71
2023/04/20 05:57:23;;;;;;;6.20;5.60;;;7.20;90.90;;;;;;5081715;28;20467;-71
2023/04/20 06:00:11;;;;;;;8.23;5.50;;;7.20;90.40;;;;;;5086754;28;20492;-71
2023/04/20 06:02:56;;;;;;;7.83;5.47;;;7.20;90.20;;;;;;5083566;28;20441;-71
2023/04/20 06:05:44;;;;;;;8.67;5.90;;;7.20;88.60;;;;;;5083686;28;20816;-71
2023/04/20 06:08:29;;;;;;;6.33;4.87;;;7.30;88.80;;;;;;5086057;28;20474;-71
2023/04/20 06:11:15;;;;;;;9.03;6.60;;;7.30;88.70;;;;;;5081615;28;21073;-71
2023/04/20 06:14:01;;;;;;;9.10;4.93;;;7.20;87.80;;;;;;5083832;28;20448;-71
2023/04/20 06:16:47;;;;;;;7.73;5.70;;;7.30;87.70;;;;;;5085212;28;22641;-71
2023/04/20 06:19:32;;;;;;;9.57;5.73;;;7.30;89.20;;;;;;5077468;28;20444;-71
2023/04/20 06:22:20;;;;;;;9.17;5.67;;;7.30;89.00;;;;;;5084064;28;20439;-71
2023/04/20 06:25:06;;;;;;;9.80;5.87;;;7.30;90.10;;;;;;5086642;28;20505;-71
2023/04/20 06:27:52;;;;;;;11.10;6.23;;;7.40;89.00;;;;;;5085555;28;20531;-71
2023/04/20 06:30:37;;;;;;;13.07;6.20;;;7.40;88.00;;;;;;5086393;28;20572;-71
2023/04/20 06:33:23;;;;;;;10.97;5.23;;;7.40;90.40;;;;;;5084889;28;20445;-71
2023/04/20 06:36:09;;;;;;;11.43;6.27;;;7.50;90.10;;;;;;5086271;28;20419;-71
2023/04/20 06:38:56;;;;;;;9.50;5.63;;;7.60;90.00;;;;;;5083613;28;20491;-72
2023/04/20 06:41:41;;;;;;;10.00;6.10;;;7.70;90.10;;;;;;5090034;28;20443;-71
2023/04/20 06:44:27;;;;;;;7.70;5.67;;;7.90;88.90;;;;;;5087911;28;20423;-71
2023/04/20 06:47:13;;;;;;;10.10;6.07;;;8.00;88.40;;;;;;5080875;28;20988;-71
2023/04/20 06:49:59;;;;;;;10.00;6.23;;;8.00;87.90;;;;;;5083930;28;22503;-71
2023/04/20 06:52:47;;;;;;;10.53;6.33;;;8.10;88.30;;;;;;5086128;28;20466;-71
2023/04/20 06:55:33;;;;;;;7.50;5.80;;;8.30;88.70;;;;;;5084315;28;20440;-71
2023/04/20 06:58:19;;;;;;;7.97;5.87;;;8.30;87.50;;;;;;5083215;28;20458;-71
2023/04/20 07:01:05;;;;;;;8.20;6.30;;;8.50;86.30;;;;;;5085598;28;20455;-71
2023/04/20 07:03:51;;;;;;;10.43;6.20;;;8.50;83.70;;;;;;5090485;28;20439;-71
2023/04/20 07:06:37;;;;;;;6.53;5.20;;;8.60;83.50;;;;;;5084958;28;20471;-71
2023/04/20 07:09:23;;;;;;;8.33;7.00;;;8.70;84.60;;;;;;5077677;28;20525;-71
2023/04/20 07:12:14;;;;;;;7.40;5.67;;;8.80;83.90;;;;;;5085870;28;20418;-71
2023/04/20 07:15:00;;;;;;;14.20;6.00;;;8.80;86.10;;;;;;5090390;28;20493;-71
2023/04/20 07:17:45;;;;;;;7.73;6.03;;;8.80;84.20;;;;;;5086030;28;20439;-71
2023/04/20 07:20:31;;;;;;;8.57;6.30;;;8.90;84.70;;;;;;5086092;28;20583;-71
2023/04/20 07:23:17;;;;;;;8.30;5.93;;;8.80;83.30;;;;;;5085467;28;20566;-71
2023/04/20 07:26:03;;;;;;;8.73;6.70;;;8.80;83.30;;;;;;5088264;28;20574;-71
2023/04/20 07:28:51;;;;;;;9.70;6.30;;;8.90;84.70;;;;;;5086385;28;20617;-71
2023/04/20 07:31:36;;;;;;;10.20;6.57;;;8.90;84.40;;;;;;5084819;28;20520;-71
2023/04/20 07:34:22;;;;;;;9.93;6.47;;;9.00;84.80;;;;;;5087248;28;20788;-71
2023/04/20 07:37:08;;;;;;;11.57;6.10;;;9.10;84.90;;;;;;5083265;28;20440;-71
2023/04/20 07:39:53;;;;;;;6.93;5.53;;;9.20;84.50;;;;;;5079284;28;21368;-71
2023/04/20 07:42:39;;;;;;;12.93;5.83;;;9.30;82.10;;;;;;5084438;28;20438;-71
2023/04/20 07:45:26;;;;;;;9.57;5.50;;;9.40;81.00;;;;;;5084022;28;20492;-71
2023/04/20 07:48:12;;;;;;;9.53;5.60;;;9.50;80.30;;;;;;5085864;28;20953;-71
2023/04/20 07:50:57;;;;;;;12.33;6.90;;;9.50;81.90;;;;;;5088444;28;20464;-71
2023/04/20 07:53:44;;;;;;;8.20;5.93;;;9.60;82.00;;;;;;5085879;28;20443;-71
2023/04/20 07:56:30;;;;;;;10.17;5.93;;;9.60;80.40;;;;;;5087678;28;20428;-71
2023/04/20 07:59:16;;;;;;;8.87;6.13;;;9.60;79.40;;;;;;5081594;28;20466;-71
2023/04/20 08:02:03;;;;;;;8.13;5.40;;;9.70;79.60;;;;;;5084142;28;20443;-71
2023/04/20 08:04:49;;;;;;;9.20;6.53;;;9.90;79.20;;;;;;5087289;28;20417;-71
2023/04/20 08:07:34;;;;;;;12.23;6.40;;;10.00;77.80;;;;;;5095454;28;20583;-71
2023/04/20 08:10:21;;;;;;;10.80;6.10;;;10.20;76.10;;;;;;5093304;28;20439;-71
2023/04/20 08:13:06;;;;;;;9.40;6.10;;;10.30;77.00;;;;;;5089830;28;20459;-71
2023/04/20 08:15:52;;;;;;;11.90;5.37;;;10.50;72.00;;;;;;5090534;28;20527;-71
2023/04/20 08:18:39;;;;;;;11.33;5.93;;;10.70;69.30;;;;;;5080831;28;20471;-71
2023/04/20 08:21:25;;;;;;;12.67;6.50;;;10.80;68.90;;;;;;5086418;28;20423;-71
2023/04/20 08:24:12;;;;;;;11.23;6.60;;;10.80;68.10;;;;;;5086542;28;20593;-71
2023/04/20 08:26:58;;;;;;;8.80;5.57;;;10.80;69.60;;;;;;5093013;28;20849;-71
2023/04/20 08:29:43;;;;;;;9.17;6.47;;;10.90;69.50;;;;;;5081868;28;20494;-71
2023/04/20 08:32:29;;;;;;;10.30;6.27;;;11.10;68.80;;;;;;5084359;28;20511;-71
2023/04/20 08:35:16;;;;;;;8.97;5.87;;;11.30;68.70;;;;;;5083984;28;20433;-71
2023/04/20 08:38:02;;;;;;;6.87;4.73;;;11.30;68.80;;;;;;5082555;28;20440;-72
2023/04/20 08:40:47;;;;;;;6.13;5.17;;;11.20;62.60;;;;;;5082166;28;20453;-71
2023/04/20 08:43:33;;;;;;;12.67;5.00;;;11.20;63.00;;;;;;5082131;28;21216;-71
2023/04/20 08:46:19;;;;;;;7.00;5.20;;;11.10;61.10;;;;;;5081387;28;21011;-72
2023/04/20 08:49:05;;;;;;;6.57;4.30;;;11.10;58.10;;;;;;5078989;28;21178;-71
2023/04/20 08:51:53;;;;;;;9.27;5.70;;;11.00;59.90;;;;;;5087787;28;20489;-71
2023/04/20 08:54:39;;;;;;;8.50;6.60;;;11.00;61.00;;;;;;5082886;28;20460;-70
2023/04/20 08:57:24;;;;;;;7.30;4.93;;;11.00;60.60;;;;;;5081349;28;20548;-71
2023/04/20 09:00:11;;;;;;;14.20;5.20;;;11.10;62.60;;;;;;5084974;28;20468;-71
2023/04/20 09:02:57;;;;;;;6.83;5.10;;;11.30;61.20;;;;;;5089031;28;20561;-72
2023/04/20 09:05:45;;;;;;;7.07;5.13;;;11.50;60.80;;;;;;5083047;28;20494;-71
2023/04/20 09:08:40;;;;;;;6.90;5.33;;;11.70;59.40;;;;;;5076809;28;20508;-71
2023/04/20 09:11:28;;;;;;;8.00;5.43;;;11.80;58.40;;;;;;5081112;28;20450;-70
2023/04/20 09:14:16;;;;;;;6.40;4.53;;;11.90;60.50;;;;;;5089695;28;20451;-70
2023/04/20 09:17:04;;;;;;;7.60;5.73;;;12.00;55.80;;;;;;5081022;28;20961;-71
2023/04/20 09:19:53;;;;;;;7.37;4.90;;;12.00;56.70;;;;;;5083317;28;20461;-71
2023/04/20 09:22:39;;;;;;;7.33;4.73;;;12.20;57.60;;;;;;5083041;28;20943;-71
2023/04/20 09:25:26;;;;;;;5.70;4.37;;;12.20;55.00;;;;;;5090207;28;20438;-71
2023/04/20 09:28:13;;;;;;;9.07;4.80;;;12.20;53.10;;;;;;5082170;28;20450;-71
2023/04/20 09:30:59;;;;;;;6.20;3.93;;;12.20;47.00;;;;;;5083511;28;20587;-71
2023/04/20 09:33:44;;;;;;;6.30;4.77;;;12.30;46.20;;;;;;5084557;28;20474;-71
2023/04/20 09:36:37;;;;;;;6.30;4.80;;;12.20;45.00;;;;;;5079646;28;20530;-71
2023/04/20 09:39:25;;;;;;;7.17;5.20;;;12.10;45.60;;;;;;5082177;28;20433;-71
2023/04/20 09:42:15;;;;;;;8.60;5.63;;;12.00;46.20;;;;;;5074213;28;20501;-71
2023/04/20 09:45:02;;;;;;;5.90;4.83;;;11.90;46.90;;;;;;5080549;28;20496;-71
2023/04/20 09:47:48;;;;;;;6.47;4.30;;;11.80;46.80;;;;;;5070641;28;20461;-71
2023/04/20 09:50:36;;;;;;;6.40;4.93;;;11.70;46.70;;;;;;5097323;22;20675;-86
2023/04/20 09:53:22;;;;;;;7.57;5.43;;;11.70;49.00;;;;;;5100988;28;20486;-85
2023/04/20 09:56:10;;;;;;;8.70;6.00;;;12.00;52.70;;;;;;5102951;28;20782;-84
2023/04/20 09:58:58;;;;;;;7.00;5.43;;;12.40;53.40;;;;;;5099487;28;20459;-84
2023/04/20 10:01:45;;;;;;;7.33;4.47;;;12.50;50.60;;;;;;5098181;28;20441;-84
2023/04/20 10:04:30;;;;;;;7.33;4.73;;;12.40;46.90;;;;;;5093007;28;20524;-84
2023/04/20 10:07:23;;;;;;;6.33;4.70;;;12.40;46.50;;;;;;5093385;28;20502;-84
2023/04/20 10:10:12;;;;;;;7.20;4.60;;;12.30;47.80;;;;;;5098258;28;20435;-84
2023/04/20 10:13:00;;;;;;;8.40;5.57;;;12.00;41.80;;;;;;5099213;28;20585;-85
2023/04/20 10:15:47;;;;;;;5.87;4.70;;;11.90;46.40;;;;;;5093770;28;20485;-85
2023/04/20 10:18:33;;;;;;;6.63;4.67;;;11.80;46.30;;;;;;5099880;28;20414;-85
2023/04/20 10:21:20;;;;;;;6.43;4.10;;;11.70;44.40;;;;;;5092022;28;20445;-85
2023/04/20 10:24:07;;;;;;;7.60;4.17;;;11.70;44.40;;;;;;5089751;28;20421;-84
2023/04/20 10:26:52;;;;;;;6.70;4.60;;;11.70;44.40;;;;;;5092844;28;20443;-84
2023/04/20 10:29:38;;;;;;;5.93;4.27;;;11.70;44.40;;;;;;5096460;28;20840;-85
2023/04/20 10:32:27;;;;;;;6.17;4.23;;;11.70;44.50;;;;;;5099053;28;20804;-84
2023/04/20 10:35:13;;;;;;;6.67;3.70;;;11.80;44.60;;;;;;5091569;28;20484;-84
2023/04/20 10:37:59;;;;;;;8.00;4.30;;;12.00;43.00;;;;;;5088119;28;20968;-84
2023/04/20 10:40:45;;;;;;;10.20;4.50;;;12.10;41.10;;;;;;5088141;28;20499;-84
2023/04/20 10:43:30;;;;;;;7.20;4.63;;;12.10;43.10;;;;;;5089209;28;20438;-84
2023/04/20 10:46:17;;;;;;;13.10;4.40;;;12.10;44.40;;;;;;5096418;28;20524;-84
2023/04/20 10:49:05;;;;;;;8.10;4.27;;;12.10;45.80;;;;;;5093074;28;20483;-84
2023/04/20 10:51:52;;;;;;;6.50;4.10;;;12.20;44.00;;;;;;5096342;28;20458;-84
2023/04/20 10:54:38;;;;;;;6.33;4.80;;;12.30;42.50;;;;;;5090510;28;20523;-84
2023/04/20 10:57:24;;;;;;;7.80;5.07;;;12.30;41.00;;;;;;5091175;28;20489;-84
2023/04/20 11:00:17;;;;;;;7.23;4.37;;;12.20;39.50;;;;;;5094070;28;20782;-85
2023/04/20 11:03:03;;;;;;;5.17;3.67;;;12.30;39.20;;;;;;5095861;28;20430;-83
2023/04/20 11:05:51;;;;;;;5.10;3.70;;;12.30;37.90;;;;;;5090150;28;20481;-83
2023/04/20 11:08:39;;;;;;;7.73;4.10;;;12.30;37.50;;;;;;5095097;28;20879;-84
2023/04/20 11:11:27;;;;;;;4.60;3.90;;;12.30;35.70;;;;;;5097145;28;20465;-83
2023/04/20 11:14:13;;;;;;;5.00;3.80;;;12.30;37.10;;;;;;5093369;28;20438;-84
2023/04/20 11:16:59;;;;;;;5.33;4.23;;;12.40;37.50;;;;;;5094431;28;20510;-85
2023/04/20 11:19:45;;;;;;;8.97;4.60;;;12.70;37.00;;;;;;5097138;28;20447;-84
2023/04/20 11:22:32;;;;;;;5.60;3.87;;;12.70;35.10;;;;;;5087655;28;20474;-84
2023/04/20 11:25:18;;;;;;;6.60;4.97;;;12.60;35.20;;;;;;5092642;28;20447;-84
2023/04/20 11:28:08;;;;;;;5.07;4.07;;;12.50;34.10;;;;;;5095174;28;20515;-84
2023/04/20 11:30:54;;;;;;;7.37;4.60;;;12.40;36.50;;;;;;5092859;28;20502;-84
2023/04/20 11:33:40;;;;;;;5.87;4.00;;;12.50;39.70;;;;;;5087769;28;20423;-84
2023/04/20 11:36:28;;;;;;;7.03;4.37;;;12.70;41.60;;;;;;5095226;28;20433;-83
2023/04/20 11:39:16;;;;;;;5.87;4.03;;;12.90;36.70;;;;;;5095839;28;20438;-84
2023/04/20 11:42:02;;;;;;;8.40;4.60;;;13.30;35.00;;;;;;5087853;28;20934;-84
2023/04/20 11:44:48;;;;;;;8.20;4.60;;;13.60;35.30;;;;;;5094234;28;21192;-84
2023/04/20 11:47:34;;;;;;;6.23;5.00;;;13.80;35.30;;;;;;5090454;28;21089;-85
2023/04/20 11:50:20;;;;;;;8.80;5.50;;;13.70;34.90;;;;;;5098771;28;20472;-84
2023/04/20 11:53:06;;;;;;;7.60;4.90;;;13.60;35.80;;;;;;5100774;28;20449;-84
2023/04/20 11:55:53;;;;;;;5.40;4.40;;;13.50;34.30;;;;;;5094154;28;20478;-84
2023/04/20 11:58:39;;;;;;;7.17;4.80;;;13.20;33.30;;;;;;5086525;28;20440;-84
2023/04/20 12:01:24;;;;;;;7.43;5.20;;;13.10;34.60;;;;;;5086585;28;20418;-84
2023/04/20 12:04:10;;;;;;;7.27;4.97;;;12.90;35.00;;;;;;5089135;28;20423;-85
2023/04/20 12:06:57;;;;;;;6.83;4.70;;;12.70;35.60;;;;;;5098376;28;20499;-84
2023/04/20 12:09:43;;;;;;;6.87;4.90;;;12.50;35.70;;;;;;5107515;28;20491;-84
2023/04/20 12:12:30;;;;;;;12.30;5.10;;;12.30;41.80;;;;;;5102680;28;20439;-84
2023/04/20 12:15:16;;;;;;;9.30;4.77;;;12.20;44.20;;;;;;5099941;28;20402;-85
2023/04/20 12:18:01;;;;;;;7.80;4.87;;;12.40;45.20;;;;;;5097262;28;20422;-85
2023/04/20 12:20:49;;;;;;;9.60;5.00;;;12.60;40.80;;;;;;5105047;22;20949;-72
2023/04/20 12:23:35;;;;;;;6.43;5.37;;;12.70;39.60;;;;;;5077366;28;20489;-72
2023/04/20 12:26:21;;;;;;;6.10;4.13;;;12.70;38.70;;;;;;5079646;28;20464;-71
2023/04/20 12:29:08;;;;;;;6.53;4.20;;;12.80;38.80;;;;;;5086540;28;20442;-70
2023/04/20 12:31:53;;;;;;;9.90;4.10;;;12.80;38.80;;;;;;5086476;28;20566;-71
2023/04/20 12:34:39;;;;;;;7.17;4.90;;;12.70;36.80;;;;;;5078073;28;20440;-70
2023/04/20 12:37:25;;;;;;;8.00;5.30;;;12.60;35.40;;;;;;5087735;28;20425;-71
2023/04/20 12:40:10;;;;;;;9.90;4.80;;;12.50;37.70;;;;;;5090610;28;20471;-71
2023/04/20 12:42:56;;;;;;;5.50;4.00;;;12.40;38.10;;;;;;5079928;28;20470;-71
2023/04/20 12:45:43;;;;;;;6.43;4.00;;;12.30;38.40;;;;;;5086862;28;20549;-71
2023/04/20 12:48:29;;;;;;;5.70;4.10;;;12.20;36.10;;;;;;5076388;28;20541;-70
2023/04/20 12:51:15;;;;;;;6.70;4.47;;;12.20;37.80;;;;;;5082920;28;20471;-71
2023/04/20 12:54:01;;;;;;;6.07;4.23;;;12.20;35.80;;;;;;5078576;28;20477;-71
2023/04/20 12:56:46;;;;;;;4.77;3.67;;;12.30;33.00;;;;;;5079120;28;20425;-70
2023/04/20 12:59:32;;;;;;;5.30;3.90;;;12.30;31.30;;;;;;5080516;28;20444;-70
2023/04/20 13:02:19;;;;;;;6.70;4.30;;;12.40;30.00;;;;;;5087841;28;20447;-71
2023/04/20 13:05:06;;;;;;;7.97;4.00;;;12.40;30.40;;;;;;5082187;28;20447;-71
2023/04/20 13:07:52;;;;;;;6.63;4.20;;;12.40;31.00;;;;;;5089857;28;20986;-70
2023/04/20 13:10:40;;;;;;;7.23;4.07;;;12.40;31.40;;;;;;5075369;28;20482;-70
2023/04/20 13:13:26;;;;;;;6.17;3.57;;;12.40;32.70;;;;;;5078911;28;21055;-70
2023/04/20 13:16:12;;;;;;;9.93;4.80;;;12.30;31.90;;;;;;5083344;28;20533;-70
2023/04/20 13:18:59;;;;;;;10.30;4.07;;;12.20;29.40;;;;;;5088353;28;20554;-70
2023/04/20 13:21:44;;;;;;;7.63;4.83;;;12.10;30.40;;;;;;5083223;28;20466;-70
2023/04/20 13:24:30;;;;;;;4.97;4.00;;;12.00;31.10;;;;;;5081746;28;20430;-70
2023/04/20 13:27:16;;;;;;;9.20;4.70;;;11.90;34.10;;;;;;5083295;28;20424;-71
2023/04/20 13:30:03;;;;;;;8.50;5.80;;;11.80;32.70;;;;;;5085560;28;20459;-71
2023/04/20 13:32:49;;;;;;;6.40;4.57;;;11.70;33.60;;;;;;5079230;28;20431;-70
2023/04/20 13:35:36;;;;;;;6.73;4.77;;;11.60;37.70;;;;;;5086728;28;20422;-70
2023/04/20 13:38:22;;;;;;;6.30;5.00;;;11.60;39.00;;;;;;5084145;28;20463;-70
2023/04/20 13:41:08;;;;;;;8.70;5.80;;;11.70;40.90;;;;;;5078040;28;20437;-70
2023/04/20 13:43:53;;;;;;;7.00;5.27;;;11.60;43.40;;;;;;5077632;28;20434;-71
2023/04/20 13:46:39;;;;;;;6.00;5.20;;;11.60;46.00;;;;;;5080419;28;20468;-71
2023/04/20 13:49:25;;;;;;;6.37;5.47;;;11.60;46.30;;;;;;5080445;28;20450;-71
2023/04/20 13:52:12;;;;;;;10.13;5.90;;;11.50;50.30;;;;;;5076089;28;21019;-71
2023/04/20 13:54:58;;;;;;;7.33;5.23;;;11.50;52.50;;;;;;5080537;28;20557;-71
2023/04/20 13:57:43;;;;;;;8.47;5.47;;;11.50;53.80;;;;;;5075433;28;20447;-71
2023/04/20 14:00:29;;;;;;;6.97;5.67;;;11.50;56.40;;;;;;5079354;28;20490;-71
2023/04/20 14:03:17;;;;;;;6.97;4.77;;;11.60;55.90;;;;;;5083160;28;20471;-71
2023/04/20 14:06:03;;;;;;;6.50;4.80;;;11.50;54.50;;;;;;5085549;28;20437;-71
2023/04/20 14:08:50;;;;;;;6.83;5.10;;;11.50;54.20;;;;;;5076333;28;20764;-71
2023/04/20 14:11:36;;;;;;;6.80;4.90;;;11.50;53.10;;;;;;5083847;28;20505;-71
2023/04/20 14:14:22;;;;;;;7.87;5.40;;;11.40;53.00;;;;;;5075916;28;20431;-71
2023/04/20 14:17:07;;;;;;;11.03;5.00;;;11.40;54.00;;;;;;5085060;28;20971;-71
2023/04/20 14:19:53;;;;;;;6.37;4.40;;;11.40;53.50;;;;;;5082652;28;20426;-71
2023/04/20 14:22:39;;;;;;;13.90;5.37;;;11.40;52.80;;;;;;5078429;28;20460;-70
2023/04/20 14:25:26;;;;;;;6.83;4.63;;;11.40;53.30;;;;;;5083583;28;20485;-70
2023/04/20 14:28:12;;;;;;;5.83;4.57;;;11.40;50.50;;;;;;5074400;28;20477;-70